Latest Weather Observations for Urandangi

IDQ60801

Issued at 1:32 pm EST Saturday 5 September 2015 (issued every 30 minutes, with the page automatically refreshed every 10 minutes)

About weather observations | Map of weather stations | Latest weather observations for QLD | Other Formats
Station Details ID: 037058 Name: URANDANGI AERODROME Lat: -21.60 Lon: 138.37 Height: 178.6 m
Data from the previous 72 hours. | See also: Recent months at Urandangi
Date/Time
EST
Temp
°C
App
Temp
°C
Dew
Point
Rel
Hum
%
Delta-T
°C
Wind Press
QNH
hPa
Press
MSL
hPa
Rain
since 9 am
mm
Dir
 
Spd
km/h
Gust
km/h
Spd
kts
Gust
kts
05/01:30pm 25.2 19.3 -0.8 18 11.9 SSE 20 35 11 19 1020.1 1019.4 0.0
05/01:00pm 24.7 20.3 0.3 20 11.3 SSE 13 28 7 15 1020.5 1019.8 0.0
05/12:30pm 24.7 19.5 0.3 20 11.4 SSE 17 28 9 15 1021.1 1020.4 0.0
05/12:00pm 24.1 18.7 1.1 22 10.8 SE 19 28 10 15 1021.5 1020.9 0.0
05/11:30am 23.6 18.6 1.3 23 10.5 SE 17 30 9 16 1022.1 1021.5 0.0
05/11:00am 22.9 17.6 1.9 25 9.9 ESE 19 32 10 17 1022.8 1022.2 0.0
05/10:30am 21.9 16.6 2.1 27 9.3 ESE 19 28 10 15 1023.0 1022.4 0.0
05/10:00am 21.1 15.9 2.4 29 8.8 ESE 19 26 10 14 1023.3 1022.7 0.0
05/09:30am 19.5 14.2 1.9 31 8.1 ESE 19 24 10 13 1023.3 1022.7 0.0
05/09:00am 17.1 12.0 0.7 33 7.2 SE 17 24 9 13 1023.0 1022.4 0.0
05/08:30am 14.1 9.9 -1.1 35 6.3 SE 11 17 6 9 1022.9 1022.3 0.0
05/08:00am 11.3 7.7 -2.1 39 5.2 SE 7 9 4 5 1022.7 1022.1 0.0
05/07:30am 8.3 4.5 -3.8 42 4.4 SE 7 7 4 4 1022.3 1021.7 0.0
05/07:00am 7.1 3.5 -3.7 46 3.9 SE 6 6 3 3 1022.0 1021.4 0.0
05/06:30am 6.7 2.8 -4.7 44 4.0 SSE 7 7 4 4 1021.6 1021.0 0.0
05/06:00am 6.7 2.7 -5.3 42 4.1 SSE 7 9 4 5 1021.3 1020.6 0.0
05/05:30am 7.4 3.1 -5.3 40 4.4 SE 9 9 5 5 1021.1 1020.4 0.0
05/05:00am 7.7 3.7 -5.4 39 4.5 ESE 7 9 4 5 1021.1 1020.4 0.0
05/04:30am 8.1 4.2 -4.7 40 4.5 E 7 9 4 5 1021.0 1020.3 0.0
05/04:00am 8.7 4.1 -4.5 39 4.7 ESE 11 13 6 7 1021.0 1020.3 0.0
05/03:30am 9.6 6.0 -3.3 40 4.8 ESE 6 7 3 4 1021.0 1020.3 0.0
05/03:00am 10.0 6.4 -3.6 38 5.1 SE 6 6 3 3 1021.1 1020.4 0.0
05/02:30am 10.1 6.4 -4.3 36 5.3 SE 6 7 3 4 1021.3 1020.6 0.0
05/02:00am 10.6 7.4 -3.5 37 5.3 SSE 4 4 2 2 1021.4 1020.7 0.0
05/01:30am 11.8 8.4 -1.7 39 5.4 SSE 6 6 3 3 1021.6 1021.0 0.0
05/01:00am 11.3 7.6 -4.8 32 5.9 SSE 6 6 3 3 1021.8 1021.2 0.0
05/12:30am 11.9 8.3 -3.8 33 6.0 SSE 6 6 3 3 1021.9 1021.3 0.0
05/12:00am 12.4 8.8 -3.8 32 6.2 ESE 6 7 3 4 1022.0 1021.4 0.0
 
Date/Time
EST
Temp
°C
App
Temp
°C
Dew
Point
Rel
Hum
%
Delta-T
°C
Wind Press
QNH
hPa
Press
MSL
hPa
Rain
since 9 am
mm
Dir
 
Spd
km/h
Gust
km/h
Spd
kts
Gust
kts
04/11:30pm 13.8 10.3 -2.6 32 6.5 SE 6 7 3 4 1022.0 1021.4 0.0
04/11:00pm 13.8 10.1 -2.6 32 6.5 ESE 7 7 4 4 1021.9 1021.3 0.0
04/10:30pm 14.2 10.6 -3.6 29 7.0 ESE 6 7 3 4 1021.9 1021.3 0.0
04/10:00pm 14.9 11.4 -2.5 30 7.0 SE 6 7 3 4 1021.9 1021.3 0.0
04/09:30pm 15.2 11.7 -3.2 28 7.3 ESE 6 7 3 4 1021.7 1021.1 0.0
04/09:00pm 16.7 13.3 -1.9 28 7.7 ESE 6 9 3 5 1021.4 1020.7 0.0
04/08:30pm 17.8 13.2 -1.4 27 8.2 SSE 13 13 7 7 1021.0 1020.3 0.0
04/08:00pm 19.4 15.6 -0.6 26 8.7 SSE 9 9 5 5 1020.6 1019.9 0.0
04/07:30pm 19.9 16.5 -0.7 25 9.0 SSE 7 9 4 5 1020.3 1019.6 0.0
04/07:00pm 21.6 17.8 -0.4 23 9.8 SSE 9 15 5 8 1020.0 1019.3 0.0
04/06:30pm 23.8 18.7 0.8 22 10.7 SSE 17 22 9 12 1019.7 1019.0 0.0
04/06:00pm 24.8 19.6 0.3 20 11.4 SSE 17 24 9 13 1019.5 1018.8 0.0
04/05:30pm 25.4 19.9 0.8 20 11.6 S 19 30 10 16 1019.4 1018.7 0.0
04/05:00pm 26.1 21.8 0.7 19 12.0 SSE 13 22 7 12 1019.3 1018.6 0.0
04/04:30pm 26.6 21.4 0.4 18 12.4 S 17 26 9 14 1019.2 1018.5 0.0
04/04:00pm 26.3 20.7 0.9 19 12.1 S 20 28 11 15 1019.2 1018.5 0.0
04/03:30pm 26.1 21.1 1.4 20 11.9 SSE 17 24 9 13 1019.5 1018.8 0.0
04/03:00pm 25.3 20.6 0.8 20 11.5 S 15 24 8 13 1019.8 1019.1 0.0
04/02:30pm 26.0 21.5 2.0 21 11.6 SSE 15 24 8 13 1020.2 1019.5 0.0
04/02:00pm 25.3 20.9 2.7 23 11.0 S 15 24 8 13 1020.5 1019.8 0.0
04/01:30pm 23.8 19.5 3.2 26 10.1 SE 15 28 8 15 1021.1 1020.4 0.0
04/01:00pm 23.9 19.5 2.7 25 10.2 SE 15 26 8 14 1021.8 1021.2 0.0
04/12:30pm 23.4 19.3 4.4 29 9.5 SSE 15 28 8 15 1022.4 1021.8 0.0
04/12:00pm 23.0 18.5 4.0 29 9.3 SSE 17 30 9 16 1023.1 1022.5 0.0
04/11:30am 21.6 17.1 4.2 32 8.5 SSE 17 28 9 15 1023.9 1023.2 0.0
04/11:00am 21.4 17.0 4.5 33 8.3 ESE 17 26 9 14 1024.1 1023.4 0.0
04/10:30am 20.9 16.0 4.9 35 7.9 SE 20 28 11 15 1024.3 1023.6 0.0
04/10:00am 19.8 14.1 5.1 38 7.2 SE 24 28 13 15 1024.4 1023.7 0.0
04/09:30am 18.8 13.9 4.9 40 6.8 SE 20 28 11 15 1024.4 1023.7 0.0
04/09:00am 17.1 13.0 4.4 43 6.0 SE 15 20 8 11 1024.4 1023.7 0.0
04/08:30am 14.1 10.5 2.7 46 5.1 SE 11 17 6 9 1024.2 1023.5 0.0
04/08:00am 11.7 8.6 1.6 50 4.3 SE 7 9 4 5 1023.9 1023.2 0.0
04/07:30am 8.7 5.4 -0.9 51 3.8 SE 6 6 3 3 1023.6 1023.0 0.0
04/07:00am 7.3 4.2 -2.4 50 3.6 S 4 6 2 3 1023.3 1022.7 0.0
04/06:30am 8.0 5.5 -0.7 54 3.4 S 2 4 1 2 1022.9 1022.3 0.0
04/06:00am 8.2 4.7 -1.3 51 3.6 SSE 7 7 4 4 1022.5 1021.9 0.0
04/05:30am 8.6 5.2 -0.9 51 3.7 ESE 7 7 4 4 1021.9 1021.3 0.0
04/05:00am 9.5 5.3 -1.2 47 4.2 ESE 11 13 6 7 1021.9 1021.3 0.0
04/04:30am 11.0 7.4 0.7 49 4.3 S 9 11 5 6 1021.6 1021.0 0.0
04/04:00am 11.8 8.2 0.3 45 4.8 SSE 9 11 5 6 1021.6 1021.0 0.0
04/03:30am 12.3 8.0 1.0 46 4.8 S 13 17 7 9 1021.7 1021.1 0.0
04/03:00am 9.6 5.5 -2.7 42 4.6 SSE 9 9 5 5 1021.8 1021.2 0.0
04/02:30am 9.9 5.7 -3.7 38 5.1 SE 9 13 5 7 1021.8 1021.2 0.0
04/02:00am 12.3 8.4 -1.2 39 5.4 S 9 13 5 7 1021.8 1021.2 0.0
04/01:30am 12.6 7.9 -2.1 36 5.8 S 13 15 7 8 1021.8 1021.2 0.0
04/01:00am 11.4 8.2 -3.9 34 5.7 SSE 4 6 2 3 1021.9 1021.3 0.0
04/12:30am 11.6 8.2 -4.9 31 6.1 SSE 4 6 2 3 1022.0 1021.4 0.0
04/12:00am 12.8 9.2 -3.5 32 6.3 SE 6 9 3 5 1022.0 1021.4 0.0
 
Date/Time
EST
Temp
°C
App
Temp
°C
Dew
Point
Rel
Hum
%
Delta-T
°C
Wind Press
QNH
hPa
Press
MSL
hPa
Rain
since 9 am
mm
Dir
 
Spd
km/h
Gust
km/h
Spd
kts
Gust
kts
03/11:30pm 12.8 9.0 -3.5 32 6.3 SE 7 9 4 5 1022.1 1021.5 0.0
03/11:00pm 13.4 8.5 -3.8 30 6.6 SE 13 15 7 8 1022.0 1021.4 0.0
03/10:30pm 13.5 8.8 -4.6 28 6.9 SSE 11 11 6 6 1022.0 1021.4 0.0
03/10:00pm 14.4 10.6 -3.4 29 7.0 SSE 7 9 4 5 1022.0 1021.4 0.0
03/09:30pm 14.6 10.7 -4.2 27 7.3 SE 7 7 4 4 1021.8 1021.2 0.0
03/09:00pm 15.4 11.5 -5.0 24 7.8 SSE 7 9 4 5 1021.7 1021.1 0.0
03/08:30pm 16.8 12.6 -3.9 24 8.3 SSE 9 11 5 6 1021.3 1020.6 0.0
03/08:00pm 18.0 13.8 -4.0 22 8.8 SSE 9 9 5 5 1020.9 1020.2 0.0
03/07:30pm 19.4 15.6 -3.5 21 9.5 SSE 7 7 4 4 1020.7 1020.0 0.0
03/07:00pm 20.8 16.6 -3.6 19 10.2 SSE 9 9 5 5 1020.2 1019.5 0.0
03/06:30pm 23.1 18.6 -3.3 17 11.3 SSE 11 17 6 9 1020.0 1019.3 0.0
03/06:00pm 24.4 19.2 -3.0 16 11.9 SSE 15 22 8 12 1019.7 1019.0 0.0
03/05:30pm 25.0 19.7 -3.4 15 12.4 SSE 15 22 8 12 1019.7 1019.0 0.0
03/05:00pm 25.4 19.4 -3.1 15 12.5 SSE 19 26 10 14 1019.6 1018.9 0.0
03/04:30pm 25.3 19.7 -3.2 15 12.5 S 17 24 9 13 1019.7 1019.0 0.0
03/04:00pm 25.2 19.3 -2.4 16 12.2 SE 19 30 10 16 1019.7 1019.0 0.0
03/03:30pm 25.3 19.2 -2.3 16 12.3 SE 20 32 11 17 1019.9 1019.2 0.0
03/03:00pm 25.1 19.2 -2.5 16 12.2 SE 19 28 10 15 1020.1 1019.4 0.0
03/02:30pm 25.0 19.6 -1.7 17 12.0 SE 17 28 9 15 1020.4 1019.7 0.0
03/02:00pm 23.7 17.8 -2.0 18 11.3 SE 19 28 10 15 1021.1 1020.4 0.0
03/01:30pm 23.9 18.0 -1.1 19 11.3 SSE 20 26 11 14 1021.5 1020.9 0.0
03/01:00pm 23.1 17.2 -1.1 20 10.8 S 20 35 11 19 1021.8 1021.2 0.0
03/12:30pm 22.8 17.0 0.0 22 10.4 SSE 20 32 11 17 1022.5 1021.9 0.0
03/12:00pm 22.2 15.6 -0.5 22 10.2 SSE 24 33 13 18 1022.9 1022.3 0.0
03/11:30am 21.1 13.8 0.3 25 9.4 SSE 28 37 15 20 1023.6 1023.0 0.0
03/11:00am 20.9 13.2 0.2 25 9.3 SSE 30 39 16 21 1024.0 1023.3 0.0
03/10:30am 20.5 12.9 0.4 26 9.1 SSE 30 39 16 21 1024.3 1023.6 0.0
03/10:00am 19.4 11.3 -0.1 27 8.6 SE 32 41 17 22 1024.2 1023.5 0.0
03/09:30am 18.6 10.8 -0.7 27 8.4 SE 30 41 16 22 1024.1 1023.4 0.0
03/09:00am 17.5 10.3 -2.2 26 8.2 SSE 26 35 14 19 1023.6 1023.0 0.0
03/08:30am 16.3 10.8 -5.4 22 8.3 SE 15 20 8 11 1023.1 1022.5 0.0
03/08:00am 12.8 8.9 -6.7 25 7.0 SSE 6 9 3 5 1022.6 1022.0 0.0
03/07:30am 9.1 5.1 -8.0 29 5.7 SSE 6 7 3 4 1022.2 1021.6 0.0
03/07:00am 8.3 4.6 -8.2 30 5.4 ESE 4 6 2 3 1021.6 1021.0 0.0
03/06:30am 9.3 5.1 -7.8 29 5.7 E 7 7 4 4 1021.2 1020.5 0.0
03/06:00am 10.3 5.5 -6.5 30 5.8 NE 11 13 6 7 1020.8 1020.1 0.0
03/05:30am 10.3 6.2 -6.5 30 5.9 SSE 7 9 4 5 1020.1 1019.4 0.0
03/05:00am 10.5 6.0 -7.2 28 6.1 S 9 9 5 5 1019.6 1018.9 0.0
03/04:30am 11.2 7.1 -7.1 27 6.4 SE 7 7 4 4 1019.4 1018.7 0.0
03/04:00am 12.4 8.5 -7.0 25 6.9 SE 6 6 3 3 1019.3 1018.6 0.0
03/03:30am 13.8 9.3 -6.9 23 7.5 SE 9 11 5 6 1019.0 1018.3 0.0
03/03:00am 15.2 10.4 -6.3 22 8.0 SSE 11 13 6 7 1018.9 1018.2 0.0
03/02:30am 16.4 11.2 -6.0 21 8.5 SSE 13 17 7 9 1018.9 1018.2 0.0
03/02:00am 17.6 11.3 -5.6 20 9.0 SSE 19 24 10 13 1018.9 1018.2 0.0
03/01:30am 18.1 11.9 -4.5 21 9.0 SSE 19 24 10 13 1018.8 1018.1 0.0
03/01:00am 18.3 12.7 -3.2 23 8.8 SSE 17 22 9 12 1018.9 1018.2 0.0
03/12:30am 18.8 13.2 -2.7 23 9.0 S 17 20 9 11 1018.7 1018.0 0.0
03/12:00am 19.5 14.0 -2.2 23 9.2 SSE 17 22 9 12 1018.8 1018.1 0.0
 
Date/Time
EST
Temp
°C
App
Temp
°C
Dew
Point
Rel
Hum
%
Delta-T
°C
Wind Press
QNH
hPa
Press
MSL
hPa
Rain
since 9 am
mm
Dir
 
Spd
km/h
Gust
km/h
Spd
kts
Gust
kts
02/11:30pm 20.1 14.7 -1.7 23 9.4 SSE 17 24 9 13 1018.8 1018.1 0.0
02/11:00pm 20.8 15.4 -1.7 22 9.7 SSE 17 26 9 14 1018.4 1017.7 0.0
02/10:30pm 21.3 15.5 -1.3 22 9.9 S 19 22 10 12 1018.3 1017.6 0.0
02/10:00pm 21.7 16.3 -1.6 21 10.2 S 17 24 9 13 1018.1 1017.4 0.0
02/09:30pm 22.6 16.8 -1.5 20 10.7 S 19 24 10 13 1017.9 1017.2 0.0
02/09:00pm 23.7 17.4 -1.3 19 11.2 S 22 30 12 16 1017.6 1017.0 0.0
02/08:30pm 24.3 18.6 -0.8 19 11.4 S 19 24 10 13 1017.3 1016.7 0.0
02/08:00pm 24.7 20.2 -0.4 19 11.5 S 13 17 7 9 1017.0 1016.4 0.0
02/07:30pm 25.3 20.7 -0.7 18 11.9 S 13 19 7 10 1016.6 1016.0 0.0
02/07:00pm 25.6 21.0 -1.2 17 12.2 S 13 19 7 10 1016.2 1015.5 0.0
02/06:30pm 26.3 21.0 -0.7 17 12.5 S 17 20 9 11 1015.9 1015.2 0.0
02/06:00pm 26.8 21.5 -0.3 17 12.7 SSW 17 22 9 12 1015.7 1015.0 0.0
02/05:30pm 27.3 22.1 0.1 17 12.9 S 17 24 9 13 1015.2 1014.5 0.0
02/05:00pm 28.2 22.6 0.0 16 13.4 S 19 26 10 14 1014.7 1014.0 0.0
02/04:30pm 29.0 24.0 1.5 17 13.5 S 17 30 9 16 1014.5 1013.8 0.0
02/04:00pm 28.1 23.2 2.3 19 12.8 S 17 26 9 14 1014.6 1013.9 0.0
02/03:30pm 28.9 23.8 3.0 19 13.0 S 19 26 10 14 1014.6 1013.9 0.0
02/03:00pm 28.5 23.3 3.4 20 12.7 S 20 32 11 17 1014.5 1013.8 0.0
02/02:30pm 29.0 23.6 4.5 21 12.7 S 22 33 12 18 1014.5 1013.8 0.0
02/02:00pm 28.3 23.0 5.2 23 12.0 S 22 33 12 18 1014.6 1013.9 0.0

Other Formats:

Comma delimited format used in spreadsheet applications
http://www.bom.gov.au/fwo/IDQ60801/IDQ60801.94344.axf

JavaScript Object Notation format (JSON) in row-major order
http://www.bom.gov.au/fwo/IDQ60801/IDQ60801.94344.json